sensor_id;sensor_type;location;lat;lon;timestamp;P1;durP1;ratioP1;P2;durP2;ratioP2
76194;SDS011;64964;48.694;21.206;2024-01-27T00:00:17;14.03;;;8.17;;
76194;SDS011;64964;48.694;21.206;2024-01-27T00:02:43;16.90;;;7.88;;
76194;SDS011;64964;48.694;21.206;2024-01-27T00:05:09;14.77;;;7.83;;
76194;SDS011;64964;48.694;21.206;2024-01-27T00:07:34;16.67;;;8.27;;
76194;SDS011;64964;48.694;21.206;2024-01-27T00:10:00;13.85;;;8.20;;
76194;SDS011;64964;48.694;21.206;2024-01-27T00:12:26;18.58;;;8.32;;
76194;SDS011;64964;48.694;21.206;2024-01-27T00:14:52;16.07;;;8.70;;
76194;SDS011;64964;48.694;21.206;2024-01-27T00:17:17;16.00;;;8.47;;
76194;SDS011;64964;48.694;21.206;2024-01-27T00:19:44;15.27;;;8.15;;
76194;SDS011;64964;48.694;21.206;2024-01-27T00:22:10;15.87;;;8.57;;
76194;SDS011;64964;48.694;21.206;2024-01-27T00:24:35;19.30;;;9.10;;
76194;SDS011;64964;48.694;21.206;2024-01-27T00:27:00;15.63;;;8.60;;
76194;SDS011;64964;48.694;21.206;2024-01-27T00:29:26;16.40;;;9.10;;
76194;SDS011;64964;48.694;21.206;2024-01-27T00:31:51;16.43;;;8.83;;
76194;SDS011;64964;48.694;21.206;2024-01-27T00:34:19;19.58;;;8.45;;
76194;SDS011;64964;48.694;21.206;2024-01-27T00:36:45;16.10;;;8.43;;
76194;SDS011;64964;48.694;21.206;2024-01-27T00:39:14;13.85;;;7.63;;
76194;SDS011;64964;48.694;21.206;2024-01-27T00:41:40;12.95;;;8.30;;
76194;SDS011;64964;48.694;21.206;2024-01-27T00:44:05;17.00;;;8.50;;
76194;SDS011;64964;48.694;21.206;2024-01-27T00:46:30;13.50;;;8.10;;
76194;SDS011;64964;48.694;21.206;2024-01-27T00:48:56;16.27;;;8.50;;
76194;SDS011;64964;48.694;21.206;2024-01-27T00:51:21;16.83;;;8.60;;
76194;SDS011;64964;48.694;21.206;2024-01-27T00:53:47;20.20;;;8.68;;
76194;SDS011;64964;48.694;21.206;2024-01-27T00:56:12;13.33;;;8.00;;
76194;SDS011;64964;48.694;21.206;2024-01-27T00:58:37;15.03;;;8.17;;
76194;SDS011;64964;48.694;21.206;2024-01-27T01:01:03;16.93;;;8.37;;
76194;SDS011;64964;48.694;21.206;2024-01-27T01:03:28;14.77;;;7.70;;
76194;SDS011;64964;48.694;21.206;2024-01-27T01:05:54;16.17;;;8.20;;
76194;SDS011;64964;48.694;21.206;2024-01-27T01:08:19;16.47;;;8.37;;
76194;SDS011;64964;48.694;21.206;2024-01-27T01:10:45;15.27;;;8.10;;
76194;SDS011;64964;48.694;21.206;2024-01-27T01:13:10;15.85;;;7.95;;
76194;SDS011;64964;48.694;21.206;2024-01-27T01:15:36;16.70;;;8.73;;
76194;SDS011;64964;48.694;21.206;2024-01-27T01:18:01;16.67;;;8.75;;
76194;SDS011;64964;48.694;21.206;2024-01-27T01:20:27;17.43;;;9.03;;
76194;SDS011;64964;48.694;21.206;2024-01-27T01:22:53;15.57;;;8.43;;
76194;SDS011;64964;48.694;21.206;2024-01-27T01:25:18;16.17;;;8.57;;
76194;SDS011;64964;48.694;21.206;2024-01-27T01:27:44;17.30;;;9.47;;
76194;SDS011;64964;48.694;21.206;2024-01-27T01:30:10;18.42;;;10.13;;
76194;SDS011;64964;48.694;21.206;2024-01-27T01:32:36;18.00;;;9.65;;
76194;SDS011;64964;48.694;21.206;2024-01-27T01:35:01;22.73;;;10.17;;
76194;SDS011;64964;48.694;21.206;2024-01-27T01:37:26;21.07;;;9.90;;
76194;SDS011;64964;48.694;21.206;2024-01-27T01:39:52;17.77;;;10.20;;
76194;SDS011;64964;48.694;21.206;2024-01-27T01:42:17;17.83;;;9.53;;
76194;SDS011;64964;48.694;21.206;2024-01-27T01:44:43;19.27;;;9.50;;
76194;SDS011;64964;48.694;21.206;2024-01-27T01:47:08;19.03;;;9.20;;
76194;SDS011;64964;48.694;21.206;2024-01-27T01:49:34;16.80;;;9.20;;
76194;SDS011;64964;48.694;21.206;2024-01-27T01:52:01;19.40;;;9.80;;
76194;SDS011;64964;48.694;21.206;2024-01-27T01:54:26;19.20;;;9.20;;
76194;SDS011;64964;48.694;21.206;2024-01-27T01:56:53;18.63;;;10.73;;
76194;SDS011;64964;48.694;21.206;2024-01-27T01:59:23;17.90;;;8.80;;
76194;SDS011;64964;48.694;21.206;2024-01-27T02:01:48;18.40;;;9.00;;
76194;SDS011;64964;48.694;21.206;2024-01-27T02:04:14;19.43;;;9.23;;
76194;SDS011;64964;48.694;21.206;2024-01-27T02:06:39;17.13;;;9.10;;
76194;SDS011;64964;48.694;21.206;2024-01-27T02:09:04;15.73;;;9.10;;
76194;SDS011;64964;48.694;21.206;2024-01-27T02:11:30;19.92;;;9.13;;
76194;SDS011;64964;48.694;21.206;2024-01-27T02:13:55;15.67;;;8.27;;
76194;SDS011;64964;48.694;21.206;2024-01-27T02:16:21;18.30;;;7.87;;
76194;SDS011;64964;48.694;21.206;2024-01-27T02:18:46;15.57;;;7.78;;
76194;SDS011;64964;48.694;21.206;2024-01-27T02:21:12;17.43;;;8.67;;
76194;SDS011;64964;48.694;21.206;2024-01-27T02:23:37;15.83;;;8.33;;
76194;SDS011;64964;48.694;21.206;2024-01-27T02:26:03;16.77;;;7.70;;
76194;SDS011;64964;48.694;21.206;2024-01-27T02:28:28;13.67;;;6.80;;
76194;SDS011;64964;48.694;21.206;2024-01-27T02:30:57;13.38;;;6.70;;
76194;SDS011;64964;48.694;21.206;2024-01-27T02:33:22;12.37;;;6.13;;
76194;SDS011;64964;48.694;21.206;2024-01-27T02:35:48;16.07;;;6.10;;
76194;SDS011;64964;48.694;21.206;2024-01-27T02:38:13;11.50;;;5.97;;
76194;SDS011;64964;48.694;21.206;2024-01-27T02:40:39;14.07;;;6.37;;
76194;SDS011;64964;48.694;21.206;2024-01-27T02:43:04;10.07;;;5.50;;
76194;SDS011;64964;48.694;21.206;2024-01-27T02:45:29;7.60;;;4.00;;
76194;SDS011;64964;48.694;21.206;2024-01-27T02:47:55;5.33;;;3.10;;
76194;SDS011;64964;48.694;21.206;2024-01-27T02:50:20;5.47;;;3.10;;
76194;SDS011;64964;48.694;21.206;2024-01-27T02:52:45;10.33;;;5.93;;
76194;SDS011;64964;48.694;21.206;2024-01-27T02:55:11;13.43;;;6.93;;
76194;SDS011;64964;48.694;21.206;2024-01-27T02:57:36;15.13;;;7.65;;
76194;SDS011;64964;48.694;21.206;2024-01-27T03:00:02;16.70;;;7.30;;
76194;SDS011;64964;48.694;21.206;2024-01-27T03:02:30;14.68;;;7.15;;
76194;SDS011;64964;48.694;21.206;2024-01-27T03:04:55;14.17;;;7.13;;
76194;SDS011;64964;48.694;21.206;2024-01-27T03:07:21;13.20;;;6.77;;
76194;SDS011;64964;48.694;21.206;2024-01-27T03:09:46;13.17;;;6.83;;
76194;SDS011;64964;48.694;21.206;2024-01-27T03:12:11;13.30;;;6.57;;
76194;SDS011;64964;48.694;21.206;2024-01-27T03:14:37;12.10;;;6.87;;
76194;SDS011;64964;48.694;21.206;2024-01-27T03:17:03;16.35;;;7.00;;
76194;SDS011;64964;48.694;21.206;2024-01-27T03:19:28;10.53;;;6.20;;
76194;SDS011;64964;48.694;21.206;2024-01-27T03:21:54;11.70;;;5.83;;
76194;SDS011;64964;48.694;21.206;2024-01-27T03:24:19;10.77;;;6.20;;
76194;SDS011;64964;48.694;21.206;2024-01-27T03:26:44;11.37;;;5.43;;
76194;SDS011;64964;48.694;21.206;2024-01-27T03:29:10;4.87;;;2.67;;
76194;SDS011;64964;48.694;21.206;2024-01-27T03:31:35;4.83;;;2.20;;
76194;SDS011;64964;48.694;21.206;2024-01-27T03:34:01;3.03;;;1.67;;
76194;SDS011;64964;48.694;21.206;2024-01-27T03:36:27;3.10;;;1.60;;
76194;SDS011;64964;48.694;21.206;2024-01-27T03:38:53;4.13;;;1.60;;
76194;SDS011;64964;48.694;21.206;2024-01-27T03:41:19;3.63;;;1.77;;
76194;SDS011;64964;48.694;21.206;2024-01-27T03:43:44;3.37;;;1.40;;
76194;SDS011;64964;48.694;21.206;2024-01-27T03:46:10;3.20;;;0.90;;
76194;SDS011;64964;48.694;21.206;2024-01-27T03:48:35;2.27;;;0.87;;
76194;SDS011;64964;48.694;21.206;2024-01-27T03:51:01;2.20;;;0.90;;
76194;SDS011;64964;48.694;21.206;2024-01-27T03:53:27;3.27;;;1.00;;
76194;SDS011;64964;48.694;21.206;2024-01-27T03:55:53;3.60;;;1.05;;
76194;SDS011;64964;48.694;21.206;2024-01-27T03:58:19;0.60;;;0.47;;
76194;SDS011;64964;48.694;21.206;2024-01-27T04:00:44;1.33;;;0.90;;
76194;SDS011;64964;48.694;21.206;2024-01-27T04:03:10;0.90;;;0.70;;
76194;SDS011;64964;48.694;21.206;2024-01-27T04:05:35;2.08;;;0.90;;
76194;SDS011;64964;48.694;21.206;2024-01-27T04:08:01;1.77;;;0.70;;
76194;SDS011;64964;48.694;21.206;2024-01-27T04:10:27;2.15;;;0.63;;
76194;SDS011;64964;48.694;21.206;2024-01-27T04:12:52;1.70;;;0.80;;
76194;SDS011;64964;48.694;21.206;2024-01-27T04:15:17;1.40;;;0.70;;
76194;SDS011;64964;48.694;21.206;2024-01-27T04:17:43;1.87;;;0.70;;
76194;SDS011;64964;48.694;21.206;2024-01-27T04:20:09;1.48;;;0.80;;
76194;SDS011;64964;48.694;21.206;2024-01-27T04:22:34;1.97;;;0.70;;
76194;SDS011;64964;48.694;21.206;2024-01-27T04:25:00;2.38;;;0.70;;
76194;SDS011;64964;48.694;21.206;2024-01-27T04:27:29;1.13;;;0.70;;
76194;SDS011;64964;48.694;21.206;2024-01-27T04:29:55;1.40;;;0.80;;
76194;SDS011;64964;48.694;21.206;2024-01-27T04:32:21;0.80;;;0.70;;
76194;SDS011;64964;48.694;21.206;2024-01-27T04:34:47;1.13;;;0.77;;
76194;SDS011;64964;48.694;21.206;2024-01-27T04:37:13;1.07;;;0.70;;
76194;SDS011;64964;48.694;21.206;2024-01-27T04:39:39;1.73;;;0.80;;
76194;SDS011;64964;48.694;21.206;2024-01-27T04:42:04;3.07;;;0.70;;
76194;SDS011;64964;48.694;21.206;2024-01-27T04:44:31;1.60;;;0.77;;
76194;SDS011;64964;48.694;21.206;2024-01-27T04:46:57;2.83;;;0.65;;
76194;SDS011;64964;48.694;21.206;2024-01-27T04:49:22;1.27;;;0.60;;
76194;SDS011;64964;48.694;21.206;2024-01-27T04:51:47;2.03;;;0.80;;
76194;SDS011;64964;48.694;21.206;2024-01-27T04:54:13;1.97;;;0.80;;
76194;SDS011;64964;48.694;21.206;2024-01-27T04:56:38;1.10;;;0.70;;
76194;SDS011;64964;48.694;21.206;2024-01-27T04:59:03;3.88;;;0.80;;
76194;SDS011;64964;48.694;21.206;2024-01-27T05:01:29;1.20;;;0.67;;
76194;SDS011;64964;48.694;21.206;2024-01-27T05:03:54;1.80;;;0.90;;
76194;SDS011;64964;48.694;21.206;2024-01-27T05:06:19;2.17;;;0.83;;
76194;SDS011;64964;48.694;21.206;2024-01-27T05:08:45;1.73;;;0.80;;
76194;SDS011;64964;48.694;21.206;2024-01-27T05:11:10;2.23;;;1.10;;
76194;SDS011;64964;48.694;21.206;2024-01-27T05:13:36;1.52;;;0.70;;
76194;SDS011;64964;48.694;21.206;2024-01-27T05:16:02;1.10;;;0.77;;
76194;SDS011;64964;48.694;21.206;2024-01-27T05:18:28;2.97;;;0.90;;
76194;SDS011;64964;48.694;21.206;2024-01-27T05:20:54;1.60;;;0.90;;
76194;SDS011;64964;48.694;21.206;2024-01-27T05:23:19;2.30;;;1.00;;
76194;SDS011;64964;48.694;21.206;2024-01-27T05:25:44;2.50;;;1.00;;
76194;SDS011;64964;48.694;21.206;2024-01-27T05:28:10;1.73;;;0.90;;
76194;SDS011;64964;48.694;21.206;2024-01-27T05:30:35;2.57;;;0.80;;
76194;SDS011;64964;48.694;21.206;2024-01-27T05:33:00;1.48;;;0.70;;
76194;SDS011;64964;48.694;21.206;2024-01-27T05:35:26;1.33;;;0.77;;
76194;SDS011;64964;48.694;21.206;2024-01-27T05:37:51;0.90;;;0.80;;
76194;SDS011;64964;48.694;21.206;2024-01-27T05:40:16;1.10;;;0.63;;
76194;SDS011;64964;48.694;21.206;2024-01-27T05:42:42;2.30;;;0.93;;
76194;SDS011;64964;48.694;21.206;2024-01-27T05:45:10;1.70;;;0.80;;
76194;SDS011;64964;48.694;21.206;2024-01-27T05:47:35;2.35;;;0.85;;
76194;SDS011;64964;48.694;21.206;2024-01-27T05:50:00;2.57;;;1.00;;
76194;SDS011;64964;48.694;21.206;2024-01-27T05:52:26;3.40;;;0.80;;
76194;SDS011;64964;48.694;21.206;2024-01-27T05:54:51;3.30;;;0.97;;
76194;SDS011;64964;48.694;21.206;2024-01-27T05:57:17;1.45;;;0.70;;
76194;SDS011;64964;48.694;21.206;2024-01-27T05:59:43;1.73;;;0.70;;
76194;SDS011;64964;48.694;21.206;2024-01-27T06:02:08;4.50;;;0.90;;
76194;SDS011;64964;48.694;21.206;2024-01-27T06:04:33;2.80;;;0.63;;
76194;SDS011;64964;48.694;21.206;2024-01-27T06:06:59;1.33;;;0.63;;
76194;SDS011;64964;48.694;21.206;2024-01-27T06:09:25;1.60;;;0.60;;
76194;SDS011;64964;48.694;21.206;2024-01-27T06:11:50;1.77;;;0.60;;
76194;SDS011;64964;48.694;21.206;2024-01-27T06:14:16;2.60;;;0.90;;
76194;SDS011;64964;48.694;21.206;2024-01-27T06:16:41;2.27;;;1.00;;
76194;SDS011;64964;48.694;21.206;2024-01-27T06:19:06;1.43;;;0.63;;
76194;SDS011;64964;48.694;21.206;2024-01-27T06:21:32;1.92;;;0.63;;
76194;SDS011;64964;48.694;21.206;2024-01-27T06:23:57;4.23;;;0.90;;
76194;SDS011;64964;48.694;21.206;2024-01-27T06:26:22;2.00;;;0.97;;
76194;SDS011;64964;48.694;21.206;2024-01-27T06:28:48;1.63;;;0.90;;
76194;SDS011;64964;48.694;21.206;2024-01-27T06:31:13;1.10;;;0.77;;
76194;SDS011;64964;48.694;21.206;2024-01-27T06:33:41;2.28;;;0.80;;
76194;SDS011;64964;48.694;21.206;2024-01-27T06:36:06;1.40;;;0.70;;
76194;SDS011;64964;48.694;21.206;2024-01-27T06:38:34;3.08;;;1.10;;
76194;SDS011;64964;48.694;21.206;2024-01-27T06:41:01;1.45;;;1.08;;
76194;SDS011;64964;48.694;21.206;2024-01-27T06:43:28;4.20;;;0.90;;
76194;SDS011;64964;48.694;21.206;2024-01-27T06:45:53;2.97;;;0.90;;
76194;SDS011;64964;48.694;21.206;2024-01-27T06:48:20;3.20;;;1.73;;
76194;SDS011;64964;48.694;21.206;2024-01-27T06:50:45;2.83;;;1.90;;
76194;SDS011;64964;48.694;21.206;2024-01-27T06:53:10;2.63;;;1.60;;
76194;SDS011;64964;48.694;21.206;2024-01-27T06:55:36;3.77;;;1.30;;
76194;SDS011;64964;48.694;21.206;2024-01-27T06:58:01;3.83;;;1.30;;
76194;SDS011;64964;48.694;21.206;2024-01-27T07:00:26;3.47;;;1.27;;
76194;SDS011;64964;48.694;21.206;2024-01-27T07:02:52;3.23;;;1.20;;
76194;SDS011;64964;48.694;21.206;2024-01-27T07:05:17;2.17;;;1.00;;
76194;SDS011;64964;48.694;21.206;2024-01-27T07:07:43;2.23;;;0.90;;
76194;SDS011;64964;48.694;21.206;2024-01-27T07:10:08;2.83;;;0.90;;
76194;SDS011;64964;48.694;21.206;2024-01-27T07:12:34;2.43;;;0.83;;
76194;SDS011;64964;48.694;21.206;2024-01-27T07:14:59;4.20;;;0.90;;
76194;SDS011;64964;48.694;21.206;2024-01-27T07:17:29;3.80;;;1.00;;
76194;SDS011;64964;48.694;21.206;2024-01-27T07:19:54;0.80;;;0.60;;
76194;SDS011;64964;48.694;21.206;2024-01-27T07:22:20;3.70;;;0.90;;
76194;SDS011;64964;48.694;21.206;2024-01-27T07:24:45;2.08;;;0.93;;
76194;SDS011;64964;48.694;21.206;2024-01-27T07:27:13;1.80;;;1.00;;
76194;SDS011;64964;48.694;21.206;2024-01-27T07:29:39;3.97;;;1.10;;
76194;SDS011;64964;48.694;21.206;2024-01-27T07:32:04;2.20;;;1.00;;
76194;SDS011;64964;48.694;21.206;2024-01-27T07:34:32;2.10;;;1.08;;
76194;SDS011;64964;48.694;21.206;2024-01-27T07:36:58;3.10;;;1.17;;
76194;SDS011;64964;48.694;21.206;2024-01-27T07:39:23;1.30;;;0.80;;
76194;SDS011;64964;48.694;21.206;2024-01-27T07:41:49;2.47;;;0.67;;
76194;SDS011;64964;48.694;21.206;2024-01-27T07:44:14;2.60;;;1.17;;
76194;SDS011;64964;48.694;21.206;2024-01-27T07:46:40;3.87;;;0.83;;
76194;SDS011;64964;48.694;21.206;2024-01-27T07:49:06;2.42;;;0.80;;
76194;SDS011;64964;48.694;21.206;2024-01-27T07:51:32;3.55;;;0.93;;
76194;SDS011;64964;48.694;21.206;2024-01-27T07:53:58;3.60;;;0.90;;
76194;SDS011;64964;48.694;21.206;2024-01-27T07:56:24;1.17;;;0.60;;
76194;SDS011;64964;48.694;21.206;2024-01-27T07:58:50;3.63;;;0.68;;
76194;SDS011;64964;48.694;21.206;2024-01-27T08:01:15;1.90;;;0.90;;
76194;SDS011;64964;48.694;21.206;2024-01-27T08:03:41;2.65;;;0.93;;
76194;SDS011;64964;48.694;21.206;2024-01-27T08:06:07;2.73;;;0.70;;
76194;SDS011;64964;48.694;21.206;2024-01-27T08:08:40;3.40;;;0.90;;
76194;SDS011;64964;48.694;21.206;2024-01-27T08:11:06;1.60;;;0.88;;
76194;SDS011;64964;48.694;21.206;2024-01-27T08:13:32;1.63;;;0.70;;
76194;SDS011;64964;48.694;21.206;2024-01-27T08:15:57;3.90;;;1.40;;
76194;SDS011;64964;48.694;21.206;2024-01-27T08:18:23;2.27;;;1.00;;
76194;SDS011;64964;48.694;21.206;2024-01-27T08:20:48;3.50;;;0.90;;
76194;SDS011;64964;48.694;21.206;2024-01-27T08:23:14;3.22;;;1.27;;
76194;SDS011;64964;48.694;21.206;2024-01-27T08:25:39;3.27;;;0.80;;
76194;SDS011;64964;48.694;21.206;2024-01-27T08:28:04;1.53;;;0.80;;
76194;SDS011;64964;48.694;21.206;2024-01-27T08:30:30;1.75;;;0.90;;
76194;SDS011;64964;48.694;21.206;2024-01-27T08:32:56;2.40;;;0.73;;
76194;SDS011;64964;48.694;21.206;2024-01-27T08:35:21;1.33;;;0.70;;
76194;SDS011;64964;48.694;21.206;2024-01-27T08:37:46;1.37;;;0.80;;
76194;SDS011;64964;48.694;21.206;2024-01-27T08:40:12;1.30;;;0.80;;
76194;SDS011;64964;48.694;21.206;2024-01-27T08:42:38;1.83;;;0.90;;
76194;SDS011;64964;48.694;21.206;2024-01-27T08:45:04;3.22;;;0.93;;
76194;SDS011;64964;48.694;21.206;2024-01-27T08:47:31;1.92;;;0.80;;
76194;SDS011;64964;48.694;21.206;2024-01-27T08:49:56;1.97;;;1.07;;
76194;SDS011;64964;48.694;21.206;2024-01-27T08:52:22;3.60;;;0.93;;
76194;SDS011;64964;48.694;21.206;2024-01-27T08:54:47;3.77;;;0.90;;
76194;SDS011;64964;48.694;21.206;2024-01-27T08:57:12;2.30;;;0.90;;
76194;SDS011;64964;48.694;21.206;2024-01-27T08:59:38;1.57;;;0.90;;
76194;SDS011;64964;48.694;21.206;2024-01-27T09:02:03;1.97;;;0.90;;
76194;SDS011;64964;48.694;21.206;2024-01-27T09:04:29;2.13;;;0.90;;
76194;SDS011;64964;48.694;21.206;2024-01-27T09:06:54;2.23;;;0.90;;
76194;SDS011;64964;48.694;21.206;2024-01-27T09:09:19;7.17;;;0.90;;
76194;SDS011;64964;48.694;21.206;2024-01-27T09:11:45;3.07;;;1.00;;
76194;SDS011;64964;48.694;21.206;2024-01-27T09:14:11;1.80;;;0.90;;
76194;SDS011;64964;48.694;21.206;2024-01-27T09:16:36;2.33;;;0.90;;
76194;SDS011;64964;48.694;21.206;2024-01-27T09:19:02;1.70;;;1.10;;
76194;SDS011;64964;48.694;21.206;2024-01-27T09:21:27;2.87;;;0.90;;
76194;SDS011;64964;48.694;21.206;2024-01-27T09:23:57;2.33;;;1.00;;
76194;SDS011;64964;48.694;21.206;2024-01-27T09:26:23;2.65;;;1.35;;
76194;SDS011;64964;48.694;21.206;2024-01-27T09:28:48;4.90;;;1.20;;
76194;SDS011;64964;48.694;21.206;2024-01-27T09:31:20;2.92;;;0.95;;
76194;SDS011;64964;48.694;21.206;2024-01-27T09:33:48;2.08;;;1.00;;
76194;SDS011;64964;48.694;21.206;2024-01-27T09:36:15;3.97;;;1.17;;
76194;SDS011;64964;48.694;21.206;2024-01-27T09:38:40;1.90;;;1.00;;
76194;SDS011;64964;48.694;21.206;2024-01-27T09:41:05;2.73;;;1.03;;
76194;SDS011;64964;48.694;21.206;2024-01-27T09:43:31;2.70;;;0.80;;
76194;SDS011;64964;48.694;21.206;2024-01-27T09:45:58;4.03;;;1.02;;
76194;SDS011;64964;48.694;21.206;2024-01-27T09:48:23;2.27;;;0.90;;
76194;SDS011;64964;48.694;21.206;2024-01-27T09:50:50;3.10;;;1.00;;
76194;SDS011;64964;48.694;21.206;2024-01-27T09:53:17;2.15;;;0.90;;
76194;SDS011;64964;48.694;21.206;2024-01-27T09:55:43;2.73;;;1.00;;
76194;SDS011;64964;48.694;21.206;2024-01-27T09:58:09;1.83;;;0.90;;
76194;SDS011;64964;48.694;21.206;2024-01-27T10:00:36;4.03;;;1.20;;
76194;SDS011;64964;48.694;21.206;2024-01-27T10:03:03;1.93;;;0.97;;
76194;SDS011;64964;48.694;21.206;2024-01-27T10:05:31;2.85;;;1.20;;
76194;SDS011;64964;48.694;21.206;2024-01-27T10:07:57;3.10;;;1.05;;
76194;SDS011;64964;48.694;21.206;2024-01-27T10:10:23;2.40;;;0.90;;
76194;SDS011;64964;48.694;21.206;2024-01-27T10:12:48;2.90;;;1.03;;
76194;SDS011;64964;48.694;21.206;2024-01-27T10:15:21;2.00;;;1.08;;
76194;SDS011;64964;48.694;21.206;2024-01-27T10:17:47;2.60;;;1.00;;
76194;SDS011;64964;48.694;21.206;2024-01-27T10:20:13;1.73;;;0.75;;
76194;SDS011;64964;48.694;21.206;2024-01-27T10:22:43;2.70;;;1.00;;
76194;SDS011;64964;48.694;21.206;2024-01-27T10:25:10;1.13;;;0.80;;
76194;SDS011;64964;48.694;21.206;2024-01-27T10:27:36;2.42;;;0.80;;
76194;SDS011;64964;48.694;21.206;2024-01-27T10:30:02;2.08;;;0.90;;
76194;SDS011;64964;48.694;21.206;2024-01-27T10:32:28;1.67;;;0.70;;
76194;SDS011;64964;48.694;21.206;2024-01-27T10:35:04;1.80;;;0.80;;
76194;SDS011;64964;48.694;21.206;2024-01-27T10:37:30;1.13;;;0.80;;
76194;SDS011;64964;48.694;21.206;2024-01-27T10:40:06;2.10;;;0.90;;
76194;SDS011;64964;48.694;21.206;2024-01-27T10:42:36;1.15;;;0.80;;
76194;SDS011;64964;48.694;21.206;2024-01-27T10:45:03;2.30;;;1.00;;
76194;SDS011;64964;48.694;21.206;2024-01-27T10:47:30;1.83;;;0.90;;
76194;SDS011;64964;48.694;21.206;2024-01-27T10:49:57;0.98;;;0.88;;
76194;SDS011;64964;48.694;21.206;2024-01-27T10:52:26;4.60;;;1.20;;
76194;SDS011;64964;48.694;21.206;2024-01-27T10:54:55;2.47;;;1.05;;
76194;SDS011;64964;48.694;21.206;2024-01-27T10:57:24;1.50;;;1.20;;
76194;SDS011;64964;48.694;21.206;2024-01-27T10:59:51;3.17;;;0.90;;
76194;SDS011;64964;48.694;21.206;2024-01-27T11:02:18;3.05;;;1.00;;
76194;SDS011;64964;48.694;21.206;2024-01-27T11:04:44;3.00;;;0.98;;
76194;SDS011;64964;48.694;21.206;2024-01-27T11:07:10;3.70;;;1.40;;
76194;SDS011;64964;48.694;21.206;2024-01-27T11:09:37;1.35;;;0.95;;
76194;SDS011;64964;48.694;21.206;2024-01-27T11:12:03;1.73;;;0.90;;
76194;SDS011;64964;48.694;21.206;2024-01-27T11:14:31;1.52;;;0.90;;
76194;SDS011;64964;48.694;21.206;2024-01-27T11:16:57;5.10;;;1.23;;
76194;SDS011;64964;48.694;21.206;2024-01-27T11:19:22;1.85;;;0.77;;
76194;SDS011;64964;48.694;21.206;2024-01-27T11:21:48;2.77;;;1.00;;
76194;SDS011;64964;48.694;21.206;2024-01-27T11:24:14;3.03;;;1.00;;
76194;SDS011;64964;48.694;21.206;2024-01-27T11:26:40;1.95;;;1.00;;
76194;SDS011;64964;48.694;21.206;2024-01-27T11:29:07;2.67;;;0.80;;
76194;SDS011;64964;48.694;21.206;2024-01-27T11:31:34;1.60;;;0.80;;
76194;SDS011;64964;48.694;21.206;2024-01-27T11:34:00;1.30;;;0.87;;
76194;SDS011;64964;48.694;21.206;2024-01-27T11:36:25;1.60;;;0.90;;
76194;SDS011;64964;48.694;21.206;2024-01-27T11:38:52;2.45;;;1.00;;
76194;SDS011;64964;48.694;21.206;2024-01-27T11:41:28;1.83;;;0.88;;
76194;SDS011;64964;48.694;21.206;2024-01-27T11:43:54;3.65;;;0.77;;
76194;SDS011;64964;48.694;21.206;2024-01-27T11:46:25;1.40;;;0.70;;
76194;SDS011;64964;48.694;21.206;2024-01-27T11:48:51;2.88;;;1.00;;
76194;SDS011;64964;48.694;21.206;2024-01-27T11:51:16;1.77;;;0.90;;
76194;SDS011;64964;48.694;21.206;2024-01-27T11:53:43;2.08;;;0.82;;
76194;SDS011;64964;48.694;21.206;2024-01-27T11:56:10;1.55;;;0.80;;
76194;SDS011;64964;48.694;21.206;2024-01-27T11:58:35;1.00;;;0.70;;
76194;SDS011;64964;48.694;21.206;2024-01-27T12:01:00;2.47;;;0.80;;
76194;SDS011;64964;48.694;21.206;2024-01-27T12:03:26;1.30;;;0.80;;
76194;SDS011;64964;48.694;21.206;2024-01-27T12:05:52;2.38;;;0.90;;
76194;SDS011;64964;48.694;21.206;2024-01-27T12:08:18;2.67;;;0.80;;
76194;SDS011;64964;48.694;21.206;2024-01-27T12:10:43;1.20;;;0.63;;
76194;SDS011;64964;48.694;21.206;2024-01-27T12:13:09;1.00;;;0.70;;
76194;SDS011;64964;48.694;21.206;2024-01-27T12:15:34;2.60;;;0.73;;
76194;SDS011;64964;48.694;21.206;2024-01-27T12:18:00;1.45;;;0.63;;
76194;SDS011;64964;48.694;21.206;2024-01-27T12:20:26;2.60;;;0.90;;
76194;SDS011;64964;48.694;21.206;2024-01-27T12:23:04;2.13;;;0.70;;
76194;SDS011;64964;48.694;21.206;2024-01-27T12:25:30;0.98;;;0.60;;
76194;SDS011;64964;48.694;21.206;2024-01-27T12:27:56;1.90;;;0.70;;
76194;SDS011;64964;48.694;21.206;2024-01-27T12:30:25;1.45;;;0.70;;
76194;SDS011;64964;48.694;21.206;2024-01-27T12:32:51;2.67;;;1.00;;
76194;SDS011;64964;48.694;21.206;2024-01-27T12:35:17;2.38;;;0.88;;
76194;SDS011;64964;48.694;21.206;2024-01-27T12:37:43;1.23;;;0.90;;
76194;SDS011;64964;48.694;21.206;2024-01-27T12:40:17;1.85;;;0.80;;
76194;SDS011;64964;48.694;21.206;2024-01-27T12:42:44;1.80;;;0.90;;
76194;SDS011;64964;48.694;21.206;2024-01-27T12:45:09;2.08;;;0.80;;
76194;SDS011;64964;48.694;21.206;2024-01-27T12:47:34;2.30;;;0.80;;
76194;SDS011;64964;48.694;21.206;2024-01-27T12:50:00;2.60;;;0.83;;
76194;SDS011;64964;48.694;21.206;2024-01-27T12:52:25;1.70;;;1.00;;
76194;SDS011;64964;48.694;21.206;2024-01-27T12:54:51;2.87;;;1.00;;
76194;SDS011;64964;48.694;21.206;2024-01-27T12:57:16;2.07;;;1.30;;
76194;SDS011;64964;48.694;21.206;2024-01-27T12:59:43;0.98;;;0.80;;
76194;SDS011;64964;48.694;21.206;2024-01-27T13:02:08;3.47;;;0.93;;
76194;SDS011;64964;48.694;21.206;2024-01-27T13:04:33;1.93;;;0.80;;
76194;SDS011;64964;48.694;21.206;2024-01-27T13:06:59;1.52;;;0.70;;
76194;SDS011;64964;48.694;21.206;2024-01-27T13:09:25;2.60;;;0.90;;
76194;SDS011;64964;48.694;21.206;2024-01-27T13:11:50;1.10;;;0.80;;
76194;SDS011;64964;48.694;21.206;2024-01-27T13:14:16;3.10;;;1.10;;
76194;SDS011;64964;48.694;21.206;2024-01-27T13:16:43;1.43;;;0.80;;
76194;SDS011;64964;48.694;21.206;2024-01-27T13:19:09;1.48;;;0.80;;
76194;SDS011;64964;48.694;21.206;2024-01-27T13:21:34;2.50;;;1.27;;
76194;SDS011;64964;48.694;21.206;2024-01-27T13:24:00;3.03;;;1.17;;
76194;SDS011;64964;48.694;21.206;2024-01-27T13:26:25;1.85;;;1.10;;
76194;SDS011;64964;48.694;21.206;2024-01-27T13:28:51;1.57;;;1.00;;
76194;SDS011;64964;48.694;21.206;2024-01-27T13:31:16;1.33;;;0.93;;
76194;SDS011;64964;48.694;21.206;2024-01-27T13:33:43;3.03;;;1.10;;
76194;SDS011;64964;48.694;21.206;2024-01-27T13:36:08;1.10;;;0.90;;
76194;SDS011;64964;48.694;21.206;2024-01-27T13:38:33;1.75;;;0.90;;
76194;SDS011;64964;48.694;21.206;2024-01-27T13:41:00;1.93;;;1.00;;
76194;SDS011;64964;48.694;21.206;2024-01-27T13:43:26;1.95;;;0.70;;
76194;SDS011;64964;48.694;21.206;2024-01-27T13:45:51;1.60;;;0.80;;
76194;SDS011;64964;48.694;21.206;2024-01-27T13:48:19;2.58;;;0.90;;
76194;SDS011;64964;48.694;21.206;2024-01-27T13:50:45;1.13;;;0.70;;
76194;SDS011;64964;48.694;21.206;2024-01-27T13:53:11;1.30;;;0.80;;
76194;SDS011;64964;48.694;21.206;2024-01-27T13:55:36;2.90;;;0.82;;
76194;SDS011;64964;48.694;21.206;2024-01-27T13:58:02;1.17;;;0.73;;
76194;SDS011;64964;48.694;21.206;2024-01-27T14:00:28;0.77;;;0.70;;
76194;SDS011;64964;48.694;21.206;2024-01-27T14:02:54;2.25;;;0.90;;
76194;SDS011;64964;48.694;21.206;2024-01-27T14:05:19;1.30;;;0.80;;
76194;SDS011;64964;48.694;21.206;2024-01-27T14:07:45;1.40;;;0.90;;
76194;SDS011;64964;48.694;21.206;2024-01-27T14:10:10;2.67;;;0.90;;
76194;SDS011;64964;48.694;21.206;2024-01-27T14:12:35;1.13;;;0.70;;
76194;SDS011;64964;48.694;21.206;2024-01-27T14:15:04;0.80;;;0.57;;
76194;SDS011;64964;48.694;21.206;2024-01-27T14:17:32;1.20;;;0.63;;
76194;SDS011;64964;48.694;21.206;2024-01-27T14:19:58;0.93;;;0.80;;
76194;SDS011;64964;48.694;21.206;2024-01-27T14:22:23;3.00;;;0.75;;